createdAt,value
2019-03-09T00:03:10.994Z,4.50
2019-03-09T00:08:34.997Z,4.54
2019-03-09T00:13:59.439Z,4.56
2019-03-09T00:19:23.653Z,4.51
2019-03-09T00:24:56.020Z,4.43
2019-03-09T00:30:27.632Z,4.39
2019-03-09T00:35:52.416Z,4.40
2019-03-09T00:41:16.263Z,4.48
2019-03-09T00:46:40.587Z,4.53
2019-03-09T00:52:05.390Z,4.55
2019-03-09T00:57:30.208Z,4.61
2019-03-09T01:02:54.272Z,4.72
2019-03-09T01:08:18.807Z,4.84
2019-03-09T01:13:43.136Z,4.91
2019-03-09T01:19:08.953Z,4.94
2019-03-09T01:24:33.429Z,5.07
2019-03-09T01:29:58.170Z,5.21
2019-03-09T01:35:22.960Z,5.25
2019-03-09T01:40:47.032Z,5.42
2019-03-09T01:46:11.547Z,5.43
2019-03-09T01:51:35.523Z,5.45
2019-03-09T01:57:01.361Z,5.45
2019-03-09T02:02:25.453Z,5.53
2019-03-09T02:07:49.796Z,5.54
2019-03-09T02:13:15.011Z,5.64
2019-03-09T02:18:39.773Z,5.66
2019-03-09T02:24:03.785Z,5.74
2019-03-09T02:29:27.720Z,5.78
2019-03-09T02:34:51.723Z,5.84
2019-03-09T02:40:23.231Z,5.90
2019-03-09T02:45:47.318Z,5.91
2019-03-09T02:51:11.539Z,5.91
2019-03-09T02:56:36.052Z,6.00
2019-03-09T03:02:10.810Z,6.10
2019-03-09T03:07:34.222Z,6.13
2019-03-09T03:12:58.906Z,6.18
2019-03-09T03:18:23.515Z,6.22
2019-03-09T03:23:47.736Z,6.26
2019-03-09T03:29:12.650Z,6.29
2019-03-09T03:34:37.088Z,6.26
2019-03-09T03:40:00.933Z,6.23
2019-03-09T03:45:25.543Z,6.21
2019-03-09T03:50:49.413Z,6.29
2019-03-09T03:56:13.269Z,6.31
2019-03-09T04:01:38.067Z,6.28
2019-03-09T04:07:02.006Z,6.22
2019-03-09T04:12:26.765Z,6.27
2019-03-09T04:17:51.164Z,6.30
2019-03-09T04:23:15.232Z,6.31
2019-03-09T04:28:39.729Z,6.24
2019-03-09T04:34:03.777Z,6.31
2019-03-09T04:39:28.739Z,6.38
2019-03-09T04:44:53.336Z,6.50
2019-03-09T04:50:17.969Z,6.57
2019-03-09T04:55:42.833Z,6.61
2019-03-09T05:01:06.638Z,6.58
2019-03-09T05:06:31.502Z,6.60
2019-03-09T05:11:56.082Z,6.67
2019-03-09T05:17:20.872Z,6.49
2019-03-09T05:22:44.632Z,6.29
2019-03-09T05:28:08.696Z,6.29
2019-03-09T05:33:33.169Z,6.33
2019-03-09T05:38:58.648Z,6.30
2019-03-09T05:44:23.358Z,6.29
2019-03-09T05:49:48.095Z,6.29
2019-03-09T05:55:17.086Z,6.21
2019-03-09T06:00:41.901Z,6.16
2019-03-09T06:06:11.779Z,6.08
2019-03-09T06:11:35.707Z,6.00
2019-03-09T06:16:59.802Z,5.85
2019-03-09T06:22:23.713Z,5.75
2019-03-09T06:27:47.401Z,5.69
2019-03-09T06:33:25.654Z,5.63
2019-03-09T06:39:10.989Z,5.56
2019-03-09T06:44:34.992Z,5.52
2019-03-09T06:49:59.346Z,5.54
2019-03-09T06:55:23.818Z,5.60
2019-03-09T07:00:48.661Z,5.52
2019-03-09T07:06:12.482Z,5.55
2019-03-09T07:11:36.659Z,5.54
2019-03-09T07:17:01.162Z,5.49
2019-03-09T07:22:26.221Z,5.49
2019-03-09T07:28:01.042Z,5.60
2019-03-09T07:33:24.950Z,5.66
2019-03-09T07:38:49.983Z,5.76
2019-03-09T07:44:14.412Z,5.83
2019-03-09T07:49:39.063Z,6.01
2019-03-09T07:55:05.553Z,6.09
2019-03-09T08:00:29.766Z,6.29
2019-03-09T08:05:53.505Z,6.38
2019-03-09T08:11:18.444Z,6.65
2019-03-09T08:16:43.129Z,6.78
2019-03-09T08:22:07.463Z,6.79
2019-03-09T08:27:31.638Z,7.00
2019-03-09T08:32:56.329Z,7.09
2019-03-09T08:38:21.108Z,7.39
2019-03-09T08:43:45.047Z,7.52
2019-03-09T08:49:09.827Z,7.77
2019-03-09T08:54:33.507Z,7.85
2019-03-09T08:59:58.042Z,8.10
2019-03-09T09:05:21.855Z,8.10
2019-03-09T09:10:45.714Z,8.23
2019-03-09T09:16:10.098Z,7.83
2019-03-09T09:21:34.417Z,8.69
2019-03-09T09:26:59.128Z,9.57
2019-03-09T09:32:24.796Z,9.87
2019-03-09T09:37:49.652Z,9.60
2019-03-09T09:43:14.908Z,9.77
2019-03-09T09:48:39.053Z,9.60
2019-03-09T09:54:04.059Z,10.00
2019-03-09T09:59:28.572Z,10.31
2019-03-09T10:04:52.935Z,10.92
2019-03-09T10:10:17.635Z,11.47
2019-03-09T10:15:41.930Z,11.68
2019-03-09T10:21:06.078Z,11.69
2019-03-09T10:26:31.099Z,11.03
2019-03-09T10:31:54.675Z,10.91
2019-03-09T10:37:18.903Z,10.53
2019-03-09T10:42:43.180Z,10.84
2019-03-09T10:48:07.833Z,10.56
2019-03-09T10:53:32.501Z,10.48
2019-03-09T10:58:56.710Z,10.47
2019-03-09T11:04:27.460Z,10.43
2019-03-09T11:09:47.053Z,10.48
2019-03-09T11:15:11.905Z,10.62
2019-03-09T11:20:36.882Z,10.58
2019-03-09T11:26:01.468Z,10.50
2019-03-09T11:31:25.715Z,10.41
2019-03-09T11:36:50.247Z,10.61
2019-03-09T11:42:15.056Z,10.78
2019-03-09T11:47:38.932Z,10.80
2019-03-09T11:53:03.350Z,10.85
2019-03-09T11:58:27.049Z,11.68
2019-03-09T12:03:51.743Z,11.84
2019-03-09T12:09:16.486Z,11.35
2019-03-09T12:14:41.005Z,11.54
2019-03-09T12:20:05.757Z,11.64
2019-03-09T12:25:30.166Z,11.82
2019-03-09T12:30:54.996Z,12.02
2019-03-09T12:36:19.703Z,11.52
2019-03-09T12:41:44.571Z,11.76
2019-03-09T12:47:08.422Z,11.65
2019-03-09T12:52:33.073Z,11.62
2019-03-09T12:57:57.097Z,12.03
2019-03-09T13:03:20.855Z,12.41
2019-03-09T13:08:44.803Z,13.23
2019-03-09T13:14:09.671Z,12.98
2019-03-09T13:19:33.497Z,12.35
2019-03-09T13:24:57.797Z,12.23
2019-03-09T13:30:22.832Z,12.23
2019-03-09T13:35:48.163Z,11.87
2019-03-09T13:41:12.191Z,11.96
2019-03-09T13:46:36.965Z,12.08
2019-03-09T13:52:01.697Z,12.10
2019-03-09T13:57:26.212Z,11.74
2019-03-09T14:02:49.868Z,11.45
2019-03-09T14:08:14.683Z,10.52
2019-03-09T14:13:39.587Z,11.03
2019-03-09T14:19:03.548Z,11.13
2019-03-09T14:24:28.711Z,11.10
2019-03-09T14:29:52.645Z,10.47
2019-03-09T14:35:17.111Z,10.22
2019-03-09T14:40:41.878Z,10.73
2019-03-09T14:46:05.568Z,10.09
2019-03-09T14:51:31.279Z,12.00
2019-03-09T14:56:55.893Z,14.13
2019-03-09T15:02:20.419Z,13.91
2019-03-09T15:07:45.217Z,13.70
2019-03-09T15:13:08.869Z,12.57
2019-03-09T15:18:33.291Z,11.96
2019-03-09T15:23:57.752Z,11.63
2019-03-09T15:29:22.445Z,10.87
2019-03-09T15:34:46.322Z,9.21
2019-03-09T15:40:10.166Z,8.68
2019-03-09T15:45:33.853Z,8.06
2019-03-09T15:50:58.387Z,6.97
2019-03-09T15:56:22.794Z,7.00
2019-03-09T16:01:47.249Z,7.03
2019-03-09T16:07:11.724Z,7.20
2019-03-09T16:12:35.388Z,7.40
2019-03-09T16:18:00.031Z,7.54
2019-03-09T16:23:24.711Z,7.31
2019-03-09T16:28:48.538Z,7.04
2019-03-09T16:34:13.372Z,6.59
2019-03-09T16:39:39.800Z,6.08
2019-03-09T16:45:05.193Z,5.90
2019-03-09T16:50:29.256Z,5.70
2019-03-09T16:55:53.670Z,5.52
2019-03-09T17:01:17.362Z,5.40
2019-03-09T17:06:41.637Z,5.19
2019-03-09T17:12:06.091Z,5.01
2019-03-09T17:17:30.573Z,4.96
2019-03-09T17:22:54.623Z,5.03
2019-03-09T17:28:18.404Z,5.08
2019-03-09T17:33:42.970Z,5.17
2019-03-09T17:39:09.737Z,5.29
2019-03-09T17:44:36.096Z,5.36
2019-03-09T17:50:00.736Z,5.38
2019-03-09T17:55:25.380Z,5.42
2019-03-09T18:00:49.951Z,5.37
2019-03-09T18:06:14.679Z,5.31
2019-03-09T18:11:38.804Z,5.35
2019-03-09T18:17:02.369Z,5.36
2019-03-09T18:22:26.846Z,5.36
2019-03-09T18:27:51.556Z,5.38
2019-03-09T18:33:16.305Z,5.42
2019-03-09T18:38:40.696Z,5.48
2019-03-09T18:44:05.134Z,5.48
2019-03-09T18:49:28.914Z,5.41
2019-03-09T18:54:53.985Z,5.44
2019-03-09T19:00:19.097Z,5.48
2019-03-09T19:05:43.655Z,5.45
2019-03-09T19:11:08.418Z,5.47
2019-03-09T19:16:32.449Z,5.54
2019-03-09T19:21:57.716Z,5.62
2019-03-09T19:27:22.519Z,5.66
2019-03-09T19:32:47.169Z,5.86
2019-03-09T19:38:11.464Z,5.95
2019-03-09T19:43:35.947Z,5.95
2019-03-09T19:49:01.770Z,6.05
2019-03-09T19:54:26.267Z,6.12
2019-03-09T19:59:50.876Z,6.13
2019-03-09T20:05:15.421Z,6.12
2019-03-09T20:10:40.054Z,6.20
2019-03-09T20:16:04.963Z,6.30
2019-03-09T20:21:29.391Z,6.46
2019-03-09T20:26:53.037Z,6.43
2019-03-09T20:32:17.616Z,6.29
2019-03-09T20:37:42.283Z,6.25
2019-03-09T20:43:06.566Z,6.20
2019-03-09T20:48:31.461Z,6.12
2019-03-09T20:53:55.783Z,6.25
2019-03-09T20:59:20.353Z,6.26
2019-03-09T21:04:45.325Z,6.16
2019-03-09T21:10:11.375Z,5.97
2019-03-09T21:15:35.809Z,5.98
2019-03-09T21:21:00.354Z,5.97
2019-03-09T21:26:25.551Z,5.78
2019-03-09T21:31:50.889Z,5.70
2019-03-09T21:37:14.821Z,5.60
2019-03-09T21:42:39.440Z,5.59
2019-03-09T21:48:04.157Z,5.42
2019-03-09T21:53:28.164Z,5.35
2019-03-09T21:58:52.803Z,5.04
2019-03-09T22:04:17.562Z,5.20
2019-03-09T22:09:42.683Z,5.16
2019-03-09T22:15:07.799Z,5.18
2019-03-09T22:20:31.535Z,5.20
2019-03-09T22:25:55.180Z,5.17
2019-03-09T22:31:19.599Z,5.17
2019-03-09T22:36:44.473Z,5.17
2019-03-09T22:42:08.766Z,5.14
2019-03-09T22:47:32.456Z,5.09
2019-03-09T22:52:56.735Z,4.99
2019-03-09T22:58:21.449Z,4.79
2019-03-09T23:03:46.245Z,4.74
2019-03-09T23:09:09.876Z,4.66
2019-03-09T23:14:34.141Z,4.62
2019-03-09T23:19:58.749Z,4.51
2019-03-09T23:25:23.550Z,4.56
2019-03-09T23:30:47.406Z,4.44
2019-03-09T23:36:11.852Z,4.35
2019-03-09T23:41:36.967Z,4.38
2019-03-09T23:47:01.869Z,4.51
2019-03-09T23:52:26.619Z,4.33
2019-03-09T23:57:51.238Z,4.41
